sensor_id;sensor_type;location;lat;lon;timestamp;P1;durP1;ratioP1;P2;durP2;ratioP2
34433;SDS011;34290;48.562;13.384;2023-03-01T00:02:06;30.73;;;12.67;;
34433;SDS011;34290;48.562;13.384;2023-03-01T00:04:33;30.80;;;13.10;;
34433;SDS011;34290;48.562;13.384;2023-03-01T00:07:00;30.10;;;13.37;;
34433;SDS011;34290;48.562;13.384;2023-03-01T00:09:29;31.17;;;12.47;;
34433;SDS011;34290;48.562;13.384;2023-03-01T00:11:56;33.10;;;13.70;;
34433;SDS011;34290;48.562;13.384;2023-03-01T00:14:23;34.63;;;12.00;;
34433;SDS011;34290;48.562;13.384;2023-03-01T00:16:50;33.43;;;13.07;;
34433;SDS011;34290;48.562;13.384;2023-03-01T00:19:18;32.07;;;13.53;;
34433;SDS011;34290;48.562;13.384;2023-03-01T00:21:47;30.67;;;13.17;;
34433;SDS011;34290;48.562;13.384;2023-03-01T00:24:14;33.03;;;14.23;;
34433;SDS011;34290;48.562;13.384;2023-03-01T00:26:43;33.13;;;14.00;;
34433;SDS011;34290;48.562;13.384;2023-03-01T00:29:10;30.80;;;14.03;;
34433;SDS011;34290;48.562;13.384;2023-03-01T00:31:37;36.23;;;13.77;;
34433;SDS011;34290;48.562;13.384;2023-03-01T00:34:04;33.27;;;13.60;;
34433;SDS011;34290;48.562;13.384;2023-03-01T00:36:33;34.23;;;14.00;;
34433;SDS011;34290;48.562;13.384;2023-03-01T00:39:02;33.03;;;13.60;;
34433;SDS011;34290;48.562;13.384;2023-03-01T00:41:30;29.63;;;12.90;;
34433;SDS011;34290;48.562;13.384;2023-03-01T00:44:00;28.27;;;12.57;;
34433;SDS011;34290;48.562;13.384;2023-03-01T00:46:27;32.23;;;13.93;;
34433;SDS011;34290;48.562;13.384;2023-03-01T00:48:55;34.90;;;13.90;;
34433;SDS011;34290;48.562;13.384;2023-03-01T00:51:23;33.57;;;12.73;;
34433;SDS011;34290;48.562;13.384;2023-03-01T00:53:51;34.30;;;13.73;;
34433;SDS011;34290;48.562;13.384;2023-03-01T00:56:20;34.90;;;12.80;;
34433;SDS011;34290;48.562;13.384;2023-03-01T00:58:47;31.83;;;12.47;;
34433;SDS011;34290;48.562;13.384;2023-03-01T01:01:16;29.80;;;12.50;;
34433;SDS011;34290;48.562;13.384;2023-03-01T01:03:45;28.97;;;12.27;;
34433;SDS011;34290;48.562;13.384;2023-03-01T01:06:14;29.17;;;12.83;;
34433;SDS011;34290;48.562;13.384;2023-03-01T01:08:42;25.13;;;11.33;;
34433;SDS011;34290;48.562;13.384;2023-03-01T01:11:09;27.73;;;11.87;;
34433;SDS011;34290;48.562;13.384;2023-03-01T01:13:36;30.13;;;11.77;;
34433;SDS011;34290;48.562;13.384;2023-03-01T01:16:04;28.27;;;11.70;;
34433;SDS011;34290;48.562;13.384;2023-03-01T01:18:33;31.57;;;12.33;;
34433;SDS011;34290;48.562;13.384;2023-03-01T01:21:04;28.53;;;12.57;;
34433;SDS011;34290;48.562;13.384;2023-03-01T01:23:33;30.83;;;12.13;;
34433;SDS011;34290;48.562;13.384;2023-03-01T01:26:03;27.17;;;11.27;;
34433;SDS011;34290;48.562;13.384;2023-03-01T01:28:31;29.90;;;12.53;;
34433;SDS011;34290;48.562;13.384;2023-03-01T01:30:58;32.27;;;12.20;;
34433;SDS011;34290;48.562;13.384;2023-03-01T01:33:25;32.27;;;13.03;;
34433;SDS011;34290;48.562;13.384;2023-03-01T01:35:54;32.70;;;12.77;;
34433;SDS011;34290;48.562;13.384;2023-03-01T01:38:21;28.90;;;12.00;;
34433;SDS011;34290;48.562;13.384;2023-03-01T01:40:49;30.33;;;12.23;;
34433;SDS011;34290;48.562;13.384;2023-03-01T01:43:18;31.17;;;12.40;;
34433;SDS011;34290;48.562;13.384;2023-03-01T01:45:48;31.60;;;12.60;;
34433;SDS011;34290;48.562;13.384;2023-03-01T01:48:17;31.83;;;13.13;;
34433;SDS011;34290;48.562;13.384;2023-03-01T01:50:46;29.40;;;11.87;;
34433;SDS011;34290;48.562;13.384;2023-03-01T01:53:20;31.07;;;12.33;;
34433;SDS011;34290;48.562;13.384;2023-03-01T01:55:49;28.20;;;12.33;;
34433;SDS011;34290;48.562;13.384;2023-03-01T01:58:19;31.67;;;13.37;;
34433;SDS011;34290;48.562;13.384;2023-03-01T02:00:47;30.30;;;12.17;;
34433;SDS011;34290;48.562;13.384;2023-03-01T02:03:16;28.33;;;12.57;;
34433;SDS011;34290;48.562;13.384;2023-03-01T02:05:50;30.57;;;13.73;;
34433;SDS011;34290;48.562;13.384;2023-03-01T02:08:23;28.00;;;11.77;;
34433;SDS011;34290;48.562;13.384;2023-03-01T02:10:55;25.83;;;11.23;;
34433;SDS011;34290;48.562;13.384;2023-03-01T02:13:24;24.60;;;11.03;;
34433;SDS011;34290;48.562;13.384;2023-03-01T02:15:51;29.27;;;12.50;;
34433;SDS011;34290;48.562;13.384;2023-03-01T02:18:20;29.50;;;12.17;;
34433;SDS011;34290;48.562;13.384;2023-03-01T02:20:52;26.40;;;11.53;;
34433;SDS011;34290;48.562;13.384;2023-03-01T02:23:29;34.33;;;12.13;;
34433;SDS011;34290;48.562;13.384;2023-03-01T02:25:59;27.23;;;12.07;;
34433;SDS011;34290;48.562;13.384;2023-03-01T02:28:32;31.63;;;13.30;;
34433;SDS011;34290;48.562;13.384;2023-03-01T02:31:01;29.17;;;12.47;;
34433;SDS011;34290;48.562;13.384;2023-03-01T02:33:47;31.17;;;12.90;;
34433;SDS011;34290;48.562;13.384;2023-03-01T02:36:15;33.70;;;13.93;;
34433;SDS011;34290;48.562;13.384;2023-03-01T02:38:44;30.23;;;13.00;;
34433;SDS011;34290;48.562;13.384;2023-03-01T02:41:13;32.17;;;12.60;;
34433;SDS011;34290;48.562;13.384;2023-03-01T02:43:44;31.87;;;12.43;;
34433;SDS011;34290;48.562;13.384;2023-03-01T02:46:13;28.17;;;11.87;;
34433;SDS011;34290;48.562;13.384;2023-03-01T02:48:43;31.67;;;12.83;;
34433;SDS011;34290;48.562;13.384;2023-03-01T02:51:18;32.30;;;12.57;;
34433;SDS011;34290;48.562;13.384;2023-03-01T02:53:56;32.10;;;12.93;;
34433;SDS011;34290;48.562;13.384;2023-03-01T02:56:34;27.90;;;12.53;;
34433;SDS011;34290;48.562;13.384;2023-03-01T02:59:03;32.10;;;13.37;;
34433;SDS011;34290;48.562;13.384;2023-03-01T03:01:30;27.43;;;12.13;;
34433;SDS011;34290;48.562;13.384;2023-03-01T03:04:03;34.30;;;13.73;;
34433;SDS011;34290;48.562;13.384;2023-03-01T03:06:31;33.47;;;13.33;;
34433;SDS011;34290;48.562;13.384;2023-03-01T03:08:58;35.13;;;13.60;;
34433;SDS011;34290;48.562;13.384;2023-03-01T03:11:25;30.33;;;12.27;;
34433;SDS011;34290;48.562;13.384;2023-03-01T03:13:52;28.73;;;12.70;;
34433;SDS011;34290;48.562;13.384;2023-03-01T03:16:21;32.73;;;14.00;;
34433;SDS011;34290;48.562;13.384;2023-03-01T03:18:48;33.43;;;12.97;;
34433;SDS011;34290;48.562;13.384;2023-03-01T03:21:15;36.27;;;14.03;;
34433;SDS011;34290;48.562;13.384;2023-03-01T03:23:43;31.67;;;13.77;;
34433;SDS011;34290;48.562;13.384;2023-03-01T03:26:10;33.00;;;14.33;;
34433;SDS011;34290;48.562;13.384;2023-03-01T03:28:40;34.13;;;13.40;;
34433;SDS011;34290;48.562;13.384;2023-03-01T03:31:07;36.43;;;14.37;;
34433;SDS011;34290;48.562;13.384;2023-03-01T03:33:36;30.70;;;12.77;;
34433;SDS011;34290;48.562;13.384;2023-03-01T03:36:03;30.93;;;13.57;;
34433;SDS011;34290;48.562;13.384;2023-03-01T03:38:31;35.30;;;14.77;;
34433;SDS011;34290;48.562;13.384;2023-03-01T03:41:01;32.43;;;13.43;;
34433;SDS011;34290;48.562;13.384;2023-03-01T03:43:30;31.37;;;13.30;;
34433;SDS011;34290;48.562;13.384;2023-03-01T03:45:59;32.33;;;12.27;;
34433;SDS011;34290;48.562;13.384;2023-03-01T03:48:30;33.20;;;13.53;;
34433;SDS011;34290;48.562;13.384;2023-03-01T03:51:00;30.77;;;12.57;;
34433;SDS011;34290;48.562;13.384;2023-03-01T03:53:30;30.20;;;12.67;;
34433;SDS011;34290;48.562;13.384;2023-03-01T03:55:57;37.20;;;13.43;;
34433;SDS011;34290;48.562;13.384;2023-03-01T03:58:25;34.40;;;13.17;;
34433;SDS011;34290;48.562;13.384;2023-03-01T04:00:53;33.37;;;14.17;;
34433;SDS011;34290;48.562;13.384;2023-03-01T04:03:22;37.50;;;13.90;;
34433;SDS011;34290;48.562;13.384;2023-03-01T04:05:50;30.97;;;12.87;;
34433;SDS011;34290;48.562;13.384;2023-03-01T04:08:19;32.43;;;13.03;;
34433;SDS011;34290;48.562;13.384;2023-03-01T04:10:49;30.93;;;13.03;;
34433;SDS011;34290;48.562;13.384;2023-03-01T04:13:18;31.03;;;12.50;;
34433;SDS011;34290;48.562;13.384;2023-03-01T04:15:46;36.50;;;13.37;;
34433;SDS011;34290;48.562;13.384;2023-03-01T04:18:14;36.00;;;13.10;;
34433;SDS011;34290;48.562;13.384;2023-03-01T04:20:43;34.03;;;13.53;;
34433;SDS011;34290;48.562;13.384;2023-03-01T04:23:11;36.37;;;14.07;;
34433;SDS011;34290;48.562;13.384;2023-03-01T04:25:42;29.10;;;11.83;;
34433;SDS011;34290;48.562;13.384;2023-03-01T04:28:14;37.43;;;12.93;;
34433;SDS011;34290;48.562;13.384;2023-03-01T04:30:42;30.13;;;12.60;;
34433;SDS011;34290;48.562;13.384;2023-03-01T04:33:09;35.13;;;14.33;;
34433;SDS011;34290;48.562;13.384;2023-03-01T04:35:38;30.63;;;12.50;;
34433;SDS011;34290;48.562;13.384;2023-03-01T04:38:06;37.60;;;13.80;;
34433;SDS011;34290;48.562;13.384;2023-03-01T04:40:33;34.07;;;12.97;;
34433;SDS011;34290;48.562;13.384;2023-03-01T04:43:02;34.10;;;14.07;;
34433;SDS011;34290;48.562;13.384;2023-03-01T04:45:31;28.47;;;12.60;;
34433;SDS011;34290;48.562;13.384;2023-03-01T04:47:59;31.70;;;13.60;;
34433;SDS011;34290;48.562;13.384;2023-03-01T04:50:26;32.00;;;12.47;;
34433;SDS011;34290;48.562;13.384;2023-03-01T04:52:53;31.27;;;12.57;;
34433;SDS011;34290;48.562;13.384;2023-03-01T04:55:23;41.27;;;15.70;;
34433;SDS011;34290;48.562;13.384;2023-03-01T04:57:51;37.63;;;14.70;;
34433;SDS011;34290;48.562;13.384;2023-03-01T05:00:19;32.67;;;12.97;;
34433;SDS011;34290;48.562;13.384;2023-03-01T05:02:48;34.07;;;13.93;;
34433;SDS011;34290;48.562;13.384;2023-03-01T05:05:21;39.37;;;13.67;;
34433;SDS011;34290;48.562;13.384;2023-03-01T05:07:51;36.03;;;13.73;;
34433;SDS011;34290;48.562;13.384;2023-03-01T05:10:19;35.43;;;13.90;;
34433;SDS011;34290;48.562;13.384;2023-03-01T05:12:46;38.30;;;15.03;;
34433;SDS011;34290;48.562;13.384;2023-03-01T05:15:13;38.37;;;14.20;;
34433;SDS011;34290;48.562;13.384;2023-03-01T05:17:42;32.77;;;13.53;;
34433;SDS011;34290;48.562;13.384;2023-03-01T05:20:09;35.83;;;14.17;;
34433;SDS011;34290;48.562;13.384;2023-03-01T05:22:37;34.93;;;13.77;;
34433;SDS011;34290;48.562;13.384;2023-03-01T05:25:04;51.73;;;16.50;;
34433;SDS011;34290;48.562;13.384;2023-03-01T05:27:33;37.20;;;14.53;;
34433;SDS011;34290;48.562;13.384;2023-03-01T05:30:00;36.90;;;15.00;;
34433;SDS011;34290;48.562;13.384;2023-03-01T05:32:38;36.10;;;13.97;;
34433;SDS011;34290;48.562;13.384;2023-03-01T05:35:09;41.03;;;13.93;;
34433;SDS011;34290;48.562;13.384;2023-03-01T05:37:39;38.03;;;13.13;;
34433;SDS011;34290;48.562;13.384;2023-03-01T05:40:08;33.57;;;13.13;;
34433;SDS011;34290;48.562;13.384;2023-03-01T05:42:41;34.57;;;12.23;;
34433;SDS011;34290;48.562;13.384;2023-03-01T05:45:12;38.83;;;13.83;;
34433;SDS011;34290;48.562;13.384;2023-03-01T05:47:40;37.83;;;13.77;;
34433;SDS011;34290;48.562;13.384;2023-03-01T05:50:11;40.27;;;14.13;;
34433;SDS011;34290;48.562;13.384;2023-03-01T05:52:39;36.73;;;13.07;;
34433;SDS011;34290;48.562;13.384;2023-03-01T05:55:06;41.07;;;15.20;;
34433;SDS011;34290;48.562;13.384;2023-03-01T05:57:34;36.90;;;15.30;;
34433;SDS011;34290;48.562;13.384;2023-03-01T06:00:01;39.97;;;14.70;;
34433;SDS011;34290;48.562;13.384;2023-03-01T06:02:29;44.37;;;14.43;;
34433;SDS011;34290;48.562;13.384;2023-03-01T06:04:55;41.53;;;15.33;;
34433;SDS011;34290;48.562;13.384;2023-03-01T06:07:24;35.83;;;13.90;;
34433;SDS011;34290;48.562;13.384;2023-03-01T06:09:51;41.03;;;15.10;;
34433;SDS011;34290;48.562;13.384;2023-03-01T06:12:18;44.50;;;15.77;;
34433;SDS011;34290;48.562;13.384;2023-03-01T06:14:45;45.67;;;15.27;;
34433;SDS011;34290;48.562;13.384;2023-03-01T06:17:13;33.37;;;14.10;;
34433;SDS011;34290;48.562;13.384;2023-03-01T06:19:40;39.93;;;14.57;;
34433;SDS011;34290;48.562;13.384;2023-03-01T06:22:07;40.17;;;15.03;;
34433;SDS011;34290;48.562;13.384;2023-03-01T06:24:36;42.27;;;16.20;;
34433;SDS011;34290;48.562;13.384;2023-03-01T06:27:03;34.73;;;14.77;;
34433;SDS011;34290;48.562;13.384;2023-03-01T06:29:30;40.87;;;15.13;;
34433;SDS011;34290;48.562;13.384;2023-03-01T06:31:57;34.87;;;14.50;;
34433;SDS011;34290;48.562;13.384;2023-03-01T06:34:24;34.23;;;14.83;;
34433;SDS011;34290;48.562;13.384;2023-03-01T06:36:50;39.10;;;15.33;;
34433;SDS011;34290;48.562;13.384;2023-03-01T06:39:17;34.17;;;14.97;;
34433;SDS011;34290;48.562;13.384;2023-03-01T06:41:46;34.23;;;14.73;;
34433;SDS011;34290;48.562;13.384;2023-03-01T06:44:13;31.97;;;14.43;;
34433;SDS011;34290;48.562;13.384;2023-03-01T06:46:40;31.90;;;13.77;;
34433;SDS011;34290;48.562;13.384;2023-03-01T06:49:07;32.27;;;14.10;;
34433;SDS011;34290;48.562;13.384;2023-03-01T06:51:34;31.53;;;13.20;;
34433;SDS011;34290;48.562;13.384;2023-03-01T06:54:02;32.70;;;13.90;;
34433;SDS011;34290;48.562;13.384;2023-03-01T06:56:30;31.60;;;14.03;;
34433;SDS011;34290;48.562;13.384;2023-03-01T06:58:58;30.33;;;13.60;;
34433;SDS011;34290;48.562;13.384;2023-03-01T07:01:25;27.20;;;12.60;;
34433;SDS011;34290;48.562;13.384;2023-03-01T07:03:53;26.93;;;12.53;;
34433;SDS011;34290;48.562;13.384;2023-03-01T07:06:20;23.17;;;11.80;;
34433;SDS011;34290;48.562;13.384;2023-03-01T07:08:47;27.70;;;12.80;;
34433;SDS011;34290;48.562;13.384;2023-03-01T07:11:14;27.80;;;12.77;;
34433;SDS011;34290;48.562;13.384;2023-03-01T07:13:42;26.33;;;11.40;;
34433;SDS011;34290;48.562;13.384;2023-03-01T07:16:10;23.10;;;12.10;;
34433;SDS011;34290;48.562;13.384;2023-03-01T07:18:37;25.30;;;12.10;;
34433;SDS011;34290;48.562;13.384;2023-03-01T07:21:04;27.77;;;12.17;;
34433;SDS011;34290;48.562;13.384;2023-03-01T07:23:32;27.23;;;12.93;;
34433;SDS011;34290;48.562;13.384;2023-03-01T07:25:59;29.03;;;14.43;;
34433;SDS011;34290;48.562;13.384;2023-03-01T07:28:27;32.23;;;15.67;;
34433;SDS011;34290;48.562;13.384;2023-03-01T07:30:54;41.13;;;15.60;;
34433;SDS011;34290;48.562;13.384;2023-03-01T07:33:22;43.30;;;15.53;;
34433;SDS011;34290;48.562;13.384;2023-03-01T07:35:55;34.97;;;15.57;;
34433;SDS011;34290;48.562;13.384;2023-03-01T07:38:24;37.45;;;16.75;;
34433;SDS011;34290;48.562;13.384;2023-03-01T07:40:51;32.45;;;15.30;;
34433;SDS011;34290;48.562;13.384;2023-03-01T07:43:18;34.65;;;15.52;;
34433;SDS011;34290;48.562;13.384;2023-03-01T07:45:45;32.60;;;15.70;;
34433;SDS011;34290;48.562;13.384;2023-03-01T07:48:12;36.80;;;14.40;;
34433;SDS011;34290;48.562;13.384;2023-03-01T07:50:41;37.57;;;14.70;;
34433;SDS011;34290;48.562;13.384;2023-03-01T07:53:08;30.27;;;13.97;;
34433;SDS011;34290;48.562;13.384;2023-03-01T07:55:35;31.50;;;13.67;;
34433;SDS011;34290;48.562;13.384;2023-03-01T07:58:02;30.53;;;13.53;;
34433;SDS011;34290;48.562;13.384;2023-03-01T08:00:31;35.40;;;14.70;;
34433;SDS011;34290;48.562;13.384;2023-03-01T08:02:58;38.93;;;14.87;;
34433;SDS011;34290;48.562;13.384;2023-03-01T08:05:26;33.97;;;14.63;;
34433;SDS011;34290;48.562;13.384;2023-03-01T08:07:54;34.60;;;14.70;;
34433;SDS011;34290;48.562;13.384;2023-03-01T08:10:21;35.77;;;14.87;;
34433;SDS011;34290;48.562;13.384;2023-03-01T08:12:50;33.50;;;13.53;;
34433;SDS011;34290;48.562;13.384;2023-03-01T08:15:18;29.23;;;11.27;;
34433;SDS011;34290;48.562;13.384;2023-03-01T08:17:47;35.37;;;13.90;;
34433;SDS011;34290;48.562;13.384;2023-03-01T08:20:15;31.77;;;12.97;;
34433;SDS011;34290;48.562;13.384;2023-03-01T08:22:42;30.73;;;12.00;;
34433;SDS011;34290;48.562;13.384;2023-03-01T08:25:11;37.40;;;13.97;;
34433;SDS011;34290;48.562;13.384;2023-03-01T08:27:37;29.73;;;12.40;;
34433;SDS011;34290;48.562;13.384;2023-03-01T08:30:05;36.33;;;12.77;;
34433;SDS011;34290;48.562;13.384;2023-03-01T08:32:35;25.50;;;11.40;;
34433;SDS011;34290;48.562;13.384;2023-03-01T08:35:03;29.17;;;10.43;;
34433;SDS011;34290;48.562;13.384;2023-03-01T08:37:31;25.03;;;10.43;;
34433;SDS011;34290;48.562;13.384;2023-03-01T08:39:58;25.90;;;11.03;;
34433;SDS011;34290;48.562;13.384;2023-03-01T08:42:26;20.47;;;9.33;;
34433;SDS011;34290;48.562;13.384;2023-03-01T08:44:53;33.50;;;11.90;;
34433;SDS011;34290;48.562;13.384;2023-03-01T08:47:21;27.60;;;12.70;;
34433;SDS011;34290;48.562;13.384;2023-03-01T08:49:49;21.93;;;9.67;;
34433;SDS011;34290;48.562;13.384;2023-03-01T08:52:16;31.10;;;13.03;;
34433;SDS011;34290;48.562;13.384;2023-03-01T08:54:43;25.50;;;10.53;;
34433;SDS011;34290;48.562;13.384;2023-03-01T08:57:10;31.27;;;12.20;;
34433;SDS011;34290;48.562;13.384;2023-03-01T08:59:39;29.27;;;12.83;;
34433;SDS011;34290;48.562;13.384;2023-03-01T09:02:10;31.57;;;11.77;;
34433;SDS011;34290;48.562;13.384;2023-03-01T09:04:41;29.20;;;12.37;;
34433;SDS011;34290;48.562;13.384;2023-03-01T09:07:08;34.20;;;12.77;;
34433;SDS011;34290;48.562;13.384;2023-03-01T09:09:36;28.07;;;11.67;;
34433;SDS011;34290;48.562;13.384;2023-03-01T09:12:03;37.60;;;13.27;;
34433;SDS011;34290;48.562;13.384;2023-03-01T09:14:32;21.37;;;9.43;;
34433;SDS011;34290;48.562;13.384;2023-03-01T09:17:00;28.47;;;12.50;;
34433;SDS011;34290;48.562;13.384;2023-03-01T09:19:28;22.23;;;9.47;;
34433;SDS011;34290;48.562;13.384;2023-03-01T09:21:55;31.10;;;12.80;;
34433;SDS011;34290;48.562;13.384;2023-03-01T09:24:23;35.37;;;13.77;;
34433;SDS011;34290;48.562;13.384;2023-03-01T09:26:52;25.47;;;9.97;;
34433;SDS011;34290;48.562;13.384;2023-03-01T09:29:20;27.33;;;11.87;;
34433;SDS011;34290;48.562;13.384;2023-03-01T09:31:47;21.83;;;9.03;;
34433;SDS011;34290;48.562;13.384;2023-03-01T09:34:16;27.37;;;12.47;;
34433;SDS011;34290;48.562;13.384;2023-03-01T09:36:48;29.87;;;11.53;;
34433;SDS011;34290;48.562;13.384;2023-03-01T09:39:15;26.13;;;11.57;;
34433;SDS011;34290;48.562;13.384;2023-03-01T09:41:44;26.83;;;12.10;;
34433;SDS011;34290;48.562;13.384;2023-03-01T09:44:16;23.80;;;11.80;;
34433;SDS011;34290;48.562;13.384;2023-03-01T09:46:51;25.23;;;11.47;;
34433;SDS011;34290;48.562;13.384;2023-03-01T09:49:20;30.10;;;13.40;;
34433;SDS011;34290;48.562;13.384;2023-03-01T09:51:54;25.47;;;11.60;;
34433;SDS011;34290;48.562;13.384;2023-03-01T09:54:23;30.97;;;12.43;;
34433;SDS011;34290;48.562;13.384;2023-03-01T09:56:57;27.93;;;11.90;;
34433;SDS011;34290;48.562;13.384;2023-03-01T09:59:33;29.00;;;12.23;;
34433;SDS011;34290;48.562;13.384;2023-03-01T10:02:04;26.75;;;11.20;;
34433;SDS011;34290;48.562;13.384;2023-03-01T10:04:47;24.35;;;11.15;;
34433;SDS011;34290;48.562;13.384;2023-03-01T10:07:19;27.90;;;12.30;;
34433;SDS011;34290;48.562;13.384;2023-03-01T10:09:53;23.38;;;10.73;;
34433;SDS011;34290;48.562;13.384;2023-03-01T10:12:22;25.48;;;11.77;;
34433;SDS011;34290;48.562;13.384;2023-03-01T10:14:54;23.60;;;10.88;;
34433;SDS011;34290;48.562;13.384;2023-03-01T10:17:30;25.83;;;11.98;;
34433;SDS011;34290;48.562;13.384;2023-03-01T10:22:52;24.55;;;11.75;;
34433;SDS011;34290;48.562;13.384;2023-03-01T10:25:23;24.65;;;10.98;;
34433;SDS011;34290;48.562;13.384;2023-03-01T10:28:00;27.98;;;12.07;;
34433;SDS011;34290;48.562;13.384;2023-03-01T10:30:32;23.38;;;11.18;;
34433;SDS011;34290;48.562;13.384;2023-03-01T10:33:03;21.77;;;9.80;;
34433;SDS011;34290;48.562;13.384;2023-03-01T10:35:40;23.23;;;11.07;;
34433;SDS011;34290;48.562;13.384;2023-03-01T10:38:08;21.55;;;10.80;;
34433;SDS011;34290;48.562;13.384;2023-03-01T10:40:36;23.70;;;10.80;;
34433;SDS011;34290;48.562;13.384;2023-03-01T10:43:17;22.45;;;10.55;;
34433;SDS011;34290;48.562;13.384;2023-03-01T10:45:45;22.65;;;10.45;;
34433;SDS011;34290;48.562;13.384;2023-03-01T10:48:13;25.85;;;10.68;;
34433;SDS011;34290;48.562;13.384;2023-03-01T10:50:43;16.48;;;8.52;;
34433;SDS011;34290;48.562;13.384;2023-03-01T10:53:25;21.07;;;9.97;;
34433;SDS011;34290;48.562;13.384;2023-03-01T10:55:58;17.20;;;8.83;;
34433;SDS011;34290;48.562;13.384;2023-03-01T10:58:26;23.33;;;9.77;;
34433;SDS011;34290;48.562;13.384;2023-03-01T11:00:54;13.70;;;6.17;;
34433;SDS011;34290;48.562;13.384;2023-03-01T11:03:23;18.03;;;8.73;;
34433;SDS011;34290;48.562;13.384;2023-03-01T11:05:54;17.43;;;8.30;;
34433;SDS011;34290;48.562;13.384;2023-03-01T11:08:36;11.93;;;6.33;;
34433;SDS011;34290;48.562;13.384;2023-03-01T11:11:18;17.73;;;8.50;;
34433;SDS011;34290;48.562;13.384;2023-03-01T11:13:50;15.17;;;7.70;;
34433;SDS011;34290;48.562;13.384;2023-03-01T11:16:23;20.03;;;8.57;;
34433;SDS011;34290;48.562;13.384;2023-03-01T11:18:56;19.63;;;7.90;;
34433;SDS011;34290;48.562;13.384;2023-03-01T11:21:26;17.15;;;8.25;;
34433;SDS011;34290;48.562;13.384;2023-03-01T11:23:57;18.90;;;7.60;;
34433;SDS011;34290;48.562;13.384;2023-03-01T11:26:28;19.40;;;7.47;;
34433;SDS011;34290;48.562;13.384;2023-03-01T11:28:58;17.57;;;7.43;;
34433;SDS011;34290;48.562;13.384;2023-03-01T11:31:37;16.50;;;7.00;;
34433;SDS011;34290;48.562;13.384;2023-03-01T11:34:09;18.00;;;7.73;;
34433;SDS011;34290;48.562;13.384;2023-03-01T11:36:42;17.30;;;7.00;;
34433;SDS011;34290;48.562;13.384;2023-03-01T11:39:17;14.93;;;6.87;;
34433;SDS011;34290;48.562;13.384;2023-03-01T11:41:52;18.95;;;7.25;;
34433;SDS011;34290;48.562;13.384;2023-03-01T11:44:29;15.63;;;7.60;;
34433;SDS011;34290;48.562;13.384;2023-03-01T11:47:07;18.73;;;7.13;;
34433;SDS011;34290;48.562;13.384;2023-03-01T11:50:02;16.37;;;7.20;;
34433;SDS011;34290;48.562;13.384;2023-03-01T11:52:43;14.73;;;6.77;;
34433;SDS011;34290;48.562;13.384;2023-03-01T11:55:25;14.83;;;6.03;;
34433;SDS011;34290;48.562;13.384;2023-03-01T11:58:15;16.73;;;6.93;;
34433;SDS011;34290;48.562;13.384;2023-03-01T12:01:17;12.13;;;5.60;;
34433;SDS011;34290;48.562;13.384;2023-03-01T12:07:00;13.63;;;6.33;;
34433;SDS011;34290;48.562;13.384;2023-03-01T12:12:35;8.90;;;4.97;;
34433;SDS011;34290;48.562;13.384;2023-03-01T12:15:31;16.33;;;5.40;;
34433;SDS011;34290;48.562;13.384;2023-03-01T12:18:12;12.53;;;5.70;;
34433;SDS011;34290;48.562;13.384;2023-03-01T12:20:50;13.90;;;5.27;;
34433;SDS011;34290;48.562;13.384;2023-03-01T12:26:33;12.20;;;5.50;;
34433;SDS011;34290;48.562;13.384;2023-03-01T12:29:07;12.23;;;6.43;;
34433;SDS011;34290;48.562;13.384;2023-03-01T12:32:06;12.37;;;5.90;;
34433;SDS011;34290;48.562;13.384;2023-03-01T12:37:54;14.70;;;7.03;;
34433;SDS011;34290;48.562;13.384;2023-03-01T12:40:33;14.73;;;6.67;;
34433;SDS011;34290;48.562;13.384;2023-03-01T12:43:10;17.90;;;8.07;;
34433;SDS011;34290;48.562;13.384;2023-03-01T12:45:56;18.87;;;8.07;;
34433;SDS011;34290;48.562;13.384;2023-03-01T12:48:46;22.43;;;9.03;;
34433;SDS011;34290;48.562;13.384;2023-03-01T12:51:23;18.07;;;8.70;;
34433;SDS011;34290;48.562;13.384;2023-03-01T12:53:53;12.90;;;6.17;;
34433;SDS011;34290;48.562;13.384;2023-03-01T12:56:22;15.70;;;7.70;;
34433;SDS011;34290;48.562;13.384;2023-03-01T12:58:55;24.07;;;9.33;;
34433;SDS011;34290;48.562;13.384;2023-03-01T13:01:31;17.57;;;8.10;;
34433;SDS011;34290;48.562;13.384;2023-03-01T13:04:11;18.40;;;9.47;;
34433;SDS011;34290;48.562;13.384;2023-03-01T13:06:46;23.63;;;10.23;;
34433;SDS011;34290;48.562;13.384;2023-03-01T13:09:23;24.77;;;10.33;;
34433;SDS011;34290;48.562;13.384;2023-03-01T13:11:55;20.80;;;9.27;;
34433;SDS011;34290;48.562;13.384;2023-03-01T13:14:45;23.10;;;9.27;;
34433;SDS011;34290;48.562;13.384;2023-03-01T13:19:56;22.33;;;8.90;;
34433;SDS011;34290;48.562;13.384;2023-03-01T13:22:25;19.27;;;8.13;;
34433;SDS011;34290;48.562;13.384;2023-03-01T13:25:00;19.17;;;8.27;;
34433;SDS011;34290;48.562;13.384;2023-03-01T13:27:29;24.07;;;9.50;;
34433;SDS011;34290;48.562;13.384;2023-03-01T13:29:59;20.03;;;8.63;;
34433;SDS011;34290;48.562;13.384;2023-03-01T13:32:30;15.97;;;6.83;;
34433;SDS011;34290;48.562;13.384;2023-03-01T13:34:59;24.50;;;9.63;;
34433;SDS011;34290;48.562;13.384;2023-03-01T13:37:31;20.10;;;7.43;;
34433;SDS011;34290;48.562;13.384;2023-03-01T13:40:05;15.50;;;7.57;;
34433;SDS011;34290;48.562;13.384;2023-03-01T13:45:56;23.23;;;10.07;;
34433;SDS011;34290;48.562;13.384;2023-03-01T13:48:26;17.63;;;6.87;;
34433;SDS011;34290;48.562;13.384;2023-03-01T13:50:57;16.67;;;7.23;;
34433;SDS011;34290;48.562;13.384;2023-03-01T13:53:26;17.00;;;7.00;;
34433;SDS011;34290;48.562;13.384;2023-03-01T13:55:58;20.87;;;8.43;;
34433;SDS011;34290;48.562;13.384;2023-03-01T13:58:28;18.23;;;9.20;;
34433;SDS011;34290;48.562;13.384;2023-03-01T14:00:59;24.30;;;9.17;;
34433;SDS011;34290;48.562;13.384;2023-03-01T14:03:29;28.67;;;9.20;;
34433;SDS011;34290;48.562;13.384;2023-03-01T14:05:58;20.23;;;8.60;;
34433;SDS011;34290;48.562;13.384;2023-03-01T14:08:29;17.80;;;8.10;;
34433;SDS011;34290;48.562;13.384;2023-03-01T14:11:09;20.13;;;8.77;;
34433;SDS011;34290;48.562;13.384;2023-03-01T14:13:55;13.37;;;5.77;;
34433;SDS011;34290;48.562;13.384;2023-03-01T14:16:35;18.93;;;8.30;;
34433;SDS011;34290;48.562;13.384;2023-03-01T14:19:15;19.27;;;8.07;;
34433;SDS011;34290;48.562;13.384;2023-03-01T14:21:45;18.27;;;7.47;;
34433;SDS011;34290;48.562;13.384;2023-03-01T14:24:16;12.00;;;5.87;;
34433;SDS011;34290;48.562;13.384;2023-03-01T14:26:45;14.07;;;6.63;;
34433;SDS011;34290;48.562;13.384;2023-03-01T14:29:25;17.17;;;7.43;;
34433;SDS011;34290;48.562;13.384;2023-03-01T14:31:54;14.37;;;6.47;;
34433;SDS011;34290;48.562;13.384;2023-03-01T14:34:22;15.03;;;5.77;;
34433;SDS011;34290;48.562;13.384;2023-03-01T14:36:50;14.37;;;6.77;;
34433;SDS011;34290;48.562;13.384;2023-03-01T14:39:18;21.73;;;7.33;;
34433;SDS011;34290;48.562;13.384;2023-03-01T14:41:50;11.97;;;5.77;;
34433;SDS011;34290;48.562;13.384;2023-03-01T14:44:19;15.50;;;6.43;;
34433;SDS011;34290;48.562;13.384;2023-03-01T14:46:51;13.83;;;5.23;;
34433;SDS011;34290;48.562;13.384;2023-03-01T14:49:22;13.03;;;6.17;;
34433;SDS011;34290;48.562;13.384;2023-03-01T14:51:54;11.30;;;5.23;;